sensor_id;sensor_type;location;lat;lon;timestamp;temperature;humidity
5647;DHT22;2845;48.626;9.362;2023-11-21T00:00:30;9.80;99.90
5647;DHT22;2845;48.626;9.362;2023-11-21T00:03:04;8.30;99.90
5647;DHT22;2845;48.626;9.362;2023-11-21T00:05:39;8.30;99.90
5647;DHT22;2845;48.626;9.362;2023-11-21T00:08:14;8.30;99.90
5647;DHT22;2845;48.626;9.362;2023-11-21T00:10:49;8.30;99.90
5647;DHT22;2845;48.626;9.362;2023-11-21T00:13:24;8.70;99.90
5647;DHT22;2845;48.626;9.362;2023-11-21T00:16:00;8.20;99.90
5647;DHT22;2845;48.626;9.362;2023-11-21T00:18:34;8.20;99.90
5647;DHT22;2845;48.626;9.362;2023-11-21T00:21:08;9.60;99.90
5647;DHT22;2845;48.626;9.362;2023-11-21T00:23:46;8.20;99.90
5647;DHT22;2845;48.626;9.362;2023-11-21T00:26:21;8.20;99.90
5647;DHT22;2845;48.626;9.362;2023-11-21T00:28:55;8.20;99.90
5647;DHT22;2845;48.626;9.362;2023-11-21T00:31:30;8.20;99.90
5647;DHT22;2845;48.626;9.362;2023-11-21T00:34:05;8.30;99.90
5647;DHT22;2845;48.626;9.362;2023-11-21T00:36:40;9.90;99.90
5647;DHT22;2845;48.626;9.362;2023-11-21T00:39:14;8.20;99.90
5647;DHT22;2845;48.626;9.362;2023-11-21T00:41:49;8.20;99.90
5647;DHT22;2845;48.626;9.362;2023-11-21T00:44:23;8.30;99.90
5647;DHT22;2845;48.626;9.362;2023-11-21T00:46:58;8.30;99.90
5647;DHT22;2845;48.626;9.362;2023-11-21T00:49:33;8.30;99.90
5647;DHT22;2845;48.626;9.362;2023-11-21T00:52:07;8.30;99.90
5647;DHT22;2845;48.626;9.362;2023-11-21T00:54:42;8.70;99.90
5647;DHT22;2845;48.626;9.362;2023-11-21T00:57:16;8.50;99.90
5647;DHT22;2845;48.626;9.362;2023-11-21T00:59:50;8.20;99.90
5647;DHT22;2845;48.626;9.362;2023-11-21T01:02:26;8.30;99.90
5647;DHT22;2845;48.626;9.362;2023-11-21T01:05:00;8.30;99.90
5647;DHT22;2845;48.626;9.362;2023-11-21T01:07:34;8.30;99.90
5647;DHT22;2845;48.626;9.362;2023-11-21T01:10:09;8.30;99.90
5647;DHT22;2845;48.626;9.362;2023-11-21T01:12:45;9.20;99.90
5647;DHT22;2845;48.626;9.362;2023-11-21T01:15:21;8.20;99.90
5647;DHT22;2845;48.626;9.362;2023-11-21T01:17:57;8.20;99.90
5647;DHT22;2845;48.626;9.362;2023-11-21T01:20:31;8.20;99.90
5647;DHT22;2845;48.626;9.362;2023-11-21T01:23:05;8.20;99.90
5647;DHT22;2845;48.626;9.362;2023-11-21T01:25:40;8.20;99.90
5647;DHT22;2845;48.626;9.362;2023-11-21T01:28:14;8.20;99.90
5647;DHT22;2845;48.626;9.362;2023-11-21T01:30:49;8.20;99.90
5647;DHT22;2845;48.626;9.362;2023-11-21T01:33:25;10.50;99.90
5647;DHT22;2845;48.626;9.362;2023-11-21T01:35:59;10.20;99.90
5647;DHT22;2845;48.626;9.362;2023-11-21T01:38:33;8.20;99.90
5647;DHT22;2845;48.626;9.362;2023-11-21T01:41:07;8.20;99.90
5647;DHT22;2845;48.626;9.362;2023-11-21T01:43:44;8.20;99.90
5647;DHT22;2845;48.626;9.362;2023-11-21T01:46:21;8.20;99.90
5647;DHT22;2845;48.626;9.362;2023-11-21T01:48:58;8.30;99.90
5647;DHT22;2845;48.626;9.362;2023-11-21T01:51:32;10.10;99.90
5647;DHT22;2845;48.626;9.362;2023-11-21T01:54:07;8.20;99.90
5647;DHT22;2845;48.626;9.362;2023-11-21T01:56:49;8.20;99.90
5647;DHT22;2845;48.626;9.362;2023-11-21T01:59:24;8.30;99.90
5647;DHT22;2845;48.626;9.362;2023-11-21T02:01:59;8.30;99.90
5647;DHT22;2845;48.626;9.362;2023-11-21T02:04:36;10.20;99.90
5647;DHT22;2845;48.626;9.362;2023-11-21T02:07:11;8.20;99.90
5647;DHT22;2845;48.626;9.362;2023-11-21T02:09:45;8.20;99.90
5647;DHT22;2845;48.626;9.362;2023-11-21T02:12:23;8.20;99.90
5647;DHT22;2845;48.626;9.362;2023-11-21T02:14:59;8.20;99.90
5647;DHT22;2845;48.626;9.362;2023-11-21T02:17:33;8.20;99.90
5647;DHT22;2845;48.626;9.362;2023-11-21T02:20:10;11.60;99.90
5647;DHT22;2845;48.626;9.362;2023-11-21T02:22:50;8.30;99.90
5647;DHT22;2845;48.626;9.362;2023-11-21T02:25:31;8.20;99.90
5647;DHT22;2845;48.626;9.362;2023-11-21T02:28:07;8.30;99.90
5647;DHT22;2845;48.626;9.362;2023-11-21T02:30:41;10.60;99.90
5647;DHT22;2845;48.626;9.362;2023-11-21T02:33:16;8.30;99.90
5647;DHT22;2845;48.626;9.362;2023-11-21T02:35:53;8.20;99.90
5647;DHT22;2845;48.626;9.362;2023-11-21T02:38:29;8.20;99.90
5647;DHT22;2845;48.626;9.362;2023-11-21T02:41:03;8.30;99.90
5647;DHT22;2845;48.626;9.362;2023-11-21T02:43:38;8.20;99.90
5647;DHT22;2845;48.626;9.362;2023-11-21T02:46:12;8.20;99.90
5647;DHT22;2845;48.626;9.362;2023-11-21T02:48:46;8.20;99.90
5647;DHT22;2845;48.626;9.362;2023-11-21T02:51:23;11.50;99.90
5647;DHT22;2845;48.626;9.362;2023-11-21T02:53:59;8.00;99.90
5647;DHT22;2845;48.626;9.362;2023-11-21T02:56:35;11.60;99.90
5647;DHT22;2845;48.626;9.362;2023-11-21T02:59:10;7.90;99.90
5647;DHT22;2845;48.626;9.362;2023-11-21T03:01:45;7.80;99.90
5647;DHT22;2845;48.626;9.362;2023-11-21T03:04:19;7.70;99.90
5647;DHT22;2845;48.626;9.362;2023-11-21T03:06:54;7.60;99.90
5647;DHT22;2845;48.626;9.362;2023-11-21T03:09:29;7.60;99.90
5647;DHT22;2845;48.626;9.362;2023-11-21T03:12:04;7.60;99.90
5647;DHT22;2845;48.626;9.362;2023-11-21T03:14:40;7.60;99.90
5647;DHT22;2845;48.626;9.362;2023-11-21T03:17:14;7.70;99.90
5647;DHT22;2845;48.626;9.362;2023-11-21T03:19:48;7.70;99.90
5647;DHT22;2845;48.626;9.362;2023-11-21T03:22:22;7.70;99.90
5647;DHT22;2845;48.626;9.362;2023-11-21T03:24:58;7.70;99.90
5647;DHT22;2845;48.626;9.362;2023-11-21T03:27:32;7.70;99.90
5647;DHT22;2845;48.626;9.362;2023-11-21T03:30:09;7.70;99.90
5647;DHT22;2845;48.626;9.362;2023-11-21T03:32:44;7.70;99.90
5647;DHT22;2845;48.626;9.362;2023-11-21T03:35:22;7.80;99.90
5647;DHT22;2845;48.626;9.362;2023-11-21T03:37:57;7.80;99.90
5647;DHT22;2845;48.626;9.362;2023-11-21T03:40:32;11.70;99.90
5647;DHT22;2845;48.626;9.362;2023-11-21T03:43:06;7.90;99.90
5647;DHT22;2845;48.626;9.362;2023-11-21T03:45:42;7.90;99.90
5647;DHT22;2845;48.626;9.362;2023-11-21T03:48:16;7.90;99.90
5647;DHT22;2845;48.626;9.362;2023-11-21T03:50:50;8.50;99.90
5647;DHT22;2845;48.626;9.362;2023-11-21T03:53:24;7.90;99.90
5647;DHT22;2845;48.626;9.362;2023-11-21T03:56:02;8.00;99.90
5647;DHT22;2845;48.626;9.362;2023-11-21T03:58:36;8.00;99.90
5647;DHT22;2845;48.626;9.362;2023-11-21T04:01:10;8.00;99.90
5647;DHT22;2845;48.626;9.362;2023-11-21T04:03:44;8.00;99.90
5647;DHT22;2845;48.626;9.362;2023-11-21T04:06:20;7.90;99.90
5647;DHT22;2845;48.626;9.362;2023-11-21T04:08:54;7.90;99.90
5647;DHT22;2845;48.626;9.362;2023-11-21T04:11:29;7.90;99.90
5647;DHT22;2845;48.626;9.362;2023-11-21T04:14:03;7.90;99.90
5647;DHT22;2845;48.626;9.362;2023-11-21T04:16:38;7.90;99.90
5647;DHT22;2845;48.626;9.362;2023-11-21T04:19:12;7.90;99.90
5647;DHT22;2845;48.626;9.362;2023-11-21T04:21:49;7.90;99.90
5647;DHT22;2845;48.626;9.362;2023-11-21T04:24:24;7.90;99.90
5647;DHT22;2845;48.626;9.362;2023-11-21T04:27:00;9.40;99.90
5647;DHT22;2845;48.626;9.362;2023-11-21T04:29:35;8.00;99.90
5647;DHT22;2845;48.626;9.362;2023-11-21T04:32:09;8.00;99.90
5647;DHT22;2845;48.626;9.362;2023-11-21T04:34:45;8.00;99.90
5647;DHT22;2845;48.626;9.362;2023-11-21T04:37:20;8.00;99.90
5647;DHT22;2845;48.626;9.362;2023-11-21T04:39:55;7.90;99.90
5647;DHT22;2845;48.626;9.362;2023-11-21T04:42:33;8.00;99.90
5647;DHT22;2845;48.626;9.362;2023-11-21T04:45:08;8.00;99.90
5647;DHT22;2845;48.626;9.362;2023-11-21T04:47:45;8.00;99.90
5647;DHT22;2845;48.626;9.362;2023-11-21T04:50:20;8.00;99.90
5647;DHT22;2845;48.626;9.362;2023-11-21T04:52:54;8.10;99.90
5647;DHT22;2845;48.626;9.362;2023-11-21T04:55:29;8.10;99.90
5647;DHT22;2845;48.626;9.362;2023-11-21T04:58:05;8.10;99.90
5647;DHT22;2845;48.626;9.362;2023-11-21T05:00:39;8.20;99.90
5647;DHT22;2845;48.626;9.362;2023-11-21T05:03:13;8.10;99.90
5647;DHT22;2845;48.626;9.362;2023-11-21T05:05:47;8.20;99.90
5647;DHT22;2845;48.626;9.362;2023-11-21T05:08:22;8.20;99.90
5647;DHT22;2845;48.626;9.362;2023-11-21T05:10:56;8.10;99.90
5647;DHT22;2845;48.626;9.362;2023-11-21T05:13:33;8.20;99.90
5647;DHT22;2845;48.626;9.362;2023-11-21T05:16:08;8.20;99.90
5647;DHT22;2845;48.626;9.362;2023-11-21T05:18:43;8.20;99.90
5647;DHT22;2845;48.626;9.362;2023-11-21T05:21:17;8.20;99.90
5647;DHT22;2845;48.626;9.362;2023-11-21T05:23:53;8.20;99.90
5647;DHT22;2845;48.626;9.362;2023-11-21T05:26:27;8.20;99.90
5647;DHT22;2845;48.626;9.362;2023-11-21T05:29:03;8.20;99.90
5647;DHT22;2845;48.626;9.362;2023-11-21T05:31:38;8.20;99.90
5647;DHT22;2845;48.626;9.362;2023-11-21T05:34:13;8.20;99.90
5647;DHT22;2845;48.626;9.362;2023-11-21T05:36:50;8.20;99.90
5647;DHT22;2845;48.626;9.362;2023-11-21T05:39:25;8.80;99.90
5647;DHT22;2845;48.626;9.362;2023-11-21T05:42:00;8.20;99.90
5647;DHT22;2845;48.626;9.362;2023-11-21T05:44:37;9.00;99.90
5647;DHT22;2845;48.626;9.362;2023-11-21T05:47:12;8.30;99.90
5647;DHT22;2845;48.626;9.362;2023-11-21T05:49:47;11.00;99.90
5647;DHT22;2845;48.626;9.362;2023-11-21T05:52:24;8.20;99.90
5647;DHT22;2845;48.626;9.362;2023-11-21T05:54:59;10.10;99.90
5647;DHT22;2845;48.626;9.362;2023-11-21T05:57:33;8.20;99.90
5647;DHT22;2845;48.626;9.362;2023-11-21T06:00:13;10.60;99.90
5647;DHT22;2845;48.626;9.362;2023-11-21T06:02:53;8.20;99.90
5647;DHT22;2845;48.626;9.362;2023-11-21T06:05:28;8.20;99.90
5647;DHT22;2845;48.626;9.362;2023-11-21T06:08:05;9.80;99.90
5647;DHT22;2845;48.626;9.362;2023-11-21T06:10:40;8.20;99.90
5647;DHT22;2845;48.626;9.362;2023-11-21T06:13:14;8.30;99.90
5647;DHT22;2845;48.626;9.362;2023-11-21T06:15:53;8.20;99.90
5647;DHT22;2845;48.626;9.362;2023-11-21T06:18:27;8.20;99.90
5647;DHT22;2845;48.626;9.362;2023-11-21T06:21:02;8.20;99.90
5647;DHT22;2845;48.626;9.362;2023-11-21T06:23:36;9.40;99.90
5647;DHT22;2845;48.626;9.362;2023-11-21T06:26:11;8.20;99.90
5647;DHT22;2845;48.626;9.362;2023-11-21T06:28:46;10.70;99.90
5647;DHT22;2845;48.626;9.362;2023-11-21T06:31:22;8.20;99.90
5647;DHT22;2845;48.626;9.362;2023-11-21T06:33:56;8.20;99.90
5647;DHT22;2845;48.626;9.362;2023-11-21T06:36:32;9.20;99.90
5647;DHT22;2845;48.626;9.362;2023-11-21T06:39:07;9.00;99.90
5647;DHT22;2845;48.626;9.362;2023-11-21T06:41:41;8.10;99.90
5647;DHT22;2845;48.626;9.362;2023-11-21T06:44:15;8.10;99.90
5647;DHT22;2845;48.626;9.362;2023-11-21T06:46:53;8.10;99.90
5647;DHT22;2845;48.626;9.362;2023-11-21T06:49:28;8.10;99.90
5647;DHT22;2845;48.626;9.362;2023-11-21T06:52:04;8.00;99.90
5647;DHT22;2845;48.626;9.362;2023-11-21T06:54:38;9.30;99.90
5647;DHT22;2845;48.626;9.362;2023-11-21T06:57:13;8.00;99.90
5647;DHT22;2845;48.626;9.362;2023-11-21T06:59:47;8.10;99.90
5647;DHT22;2845;48.626;9.362;2023-11-21T07:02:22;8.10;99.90
5647;DHT22;2845;48.626;9.362;2023-11-21T07:04:56;8.20;99.90
5647;DHT22;2845;48.626;9.362;2023-11-21T07:07:30;8.30;99.90
5647;DHT22;2845;48.626;9.362;2023-11-21T07:10:07;8.30;99.90
5647;DHT22;2845;48.626;9.362;2023-11-21T07:12:42;8.30;99.90
5647;DHT22;2845;48.626;9.362;2023-11-21T07:15:16;8.40;99.90
5647;DHT22;2845;48.626;9.362;2023-11-21T07:17:53;8.50;99.90
5647;DHT22;2845;48.626;9.362;2023-11-21T07:20:27;8.50;99.90
5647;DHT22;2845;48.626;9.362;2023-11-21T07:23:03;8.50;99.90
5647;DHT22;2845;48.626;9.362;2023-11-21T07:25:38;8.60;99.90
5647;DHT22;2845;48.626;9.362;2023-11-21T07:28:13;8.60;99.90
5647;DHT22;2845;48.626;9.362;2023-11-21T07:30:48;8.70;99.90
5647;DHT22;2845;48.626;9.362;2023-11-21T07:33:23;8.70;99.90
5647;DHT22;2845;48.626;9.362;2023-11-21T07:35:58;10.70;99.90
5647;DHT22;2845;48.626;9.362;2023-11-21T07:38:32;9.70;99.90
5647;DHT22;2845;48.626;9.362;2023-11-21T07:41:06;10.70;99.90
5647;DHT22;2845;48.626;9.362;2023-11-21T07:43:57;8.90;99.90
5647;DHT22;2845;48.626;9.362;2023-11-21T07:46:31;9.00;99.90
5647;DHT22;2845;48.626;9.362;2023-11-21T07:49:07;9.10;99.90
5647;DHT22;2845;48.626;9.362;2023-11-21T07:51:41;9.20;99.90
5647;DHT22;2845;48.626;9.362;2023-11-21T07:54:16;10.80;99.90
5647;DHT22;2845;48.626;9.362;2023-11-21T07:56:50;9.30;99.90
5647;DHT22;2845;48.626;9.362;2023-11-21T07:59:25;9.40;99.90
5647;DHT22;2845;48.626;9.362;2023-11-21T08:01:59;9.40;99.90
5647;DHT22;2845;48.626;9.362;2023-11-21T08:04:34;9.50;99.90
5647;DHT22;2845;48.626;9.362;2023-11-21T08:07:09;9.50;99.90
5647;DHT22;2845;48.626;9.362;2023-11-21T08:09:43;9.60;99.90
5647;DHT22;2845;48.626;9.362;2023-11-21T08:12:19;9.50;99.90
5647;DHT22;2845;48.626;9.362;2023-11-21T08:14:53;9.50;99.90
5647;DHT22;2845;48.626;9.362;2023-11-21T08:17:29;9.50;99.90
5647;DHT22;2845;48.626;9.362;2023-11-21T08:20:08;9.40;99.90
5647;DHT22;2845;48.626;9.362;2023-11-21T08:22:45;9.40;99.90
5647;DHT22;2845;48.626;9.362;2023-11-21T08:25:20;9.40;99.90
5647;DHT22;2845;48.626;9.362;2023-11-21T08:27:54;12.10;99.90
5647;DHT22;2845;48.626;9.362;2023-11-21T08:30:28;9.50;99.90
5647;DHT22;2845;48.626;9.362;2023-11-21T08:33:03;9.50;99.90
5647;DHT22;2845;48.626;9.362;2023-11-21T08:35:38;10.90;99.90
5647;DHT22;2845;48.626;9.362;2023-11-21T08:38:12;9.60;99.90
5647;DHT22;2845;48.626;9.362;2023-11-21T08:40:47;9.60;99.90
5647;DHT22;2845;48.626;9.362;2023-11-21T08:43:21;9.70;99.90
5647;DHT22;2845;48.626;9.362;2023-11-21T08:45:55;9.70;99.90
5647;DHT22;2845;48.626;9.362;2023-11-21T08:48:29;9.80;99.90
5647;DHT22;2845;48.626;9.362;2023-11-21T08:51:05;12.40;99.90
5647;DHT22;2845;48.626;9.362;2023-11-21T08:53:40;10.10;99.90
5647;DHT22;2845;48.626;9.362;2023-11-21T08:56:14;10.20;99.90
5647;DHT22;2845;48.626;9.362;2023-11-21T08:58:48;12.00;99.90
5647;DHT22;2845;48.626;9.362;2023-11-21T09:01:23;11.90;99.90
5647;DHT22;2845;48.626;9.362;2023-11-21T09:03:57;10.50;99.90
5647;DHT22;2845;48.626;9.362;2023-11-21T09:06:33;10.90;99.90
5647;DHT22;2845;48.626;9.362;2023-11-21T09:09:08;11.20;99.90
5647;DHT22;2845;48.626;9.362;2023-11-21T09:11:42;10.40;99.70
5647;DHT22;2845;48.626;9.362;2023-11-21T09:14:18;12.00;99.90
5647;DHT22;2845;48.626;9.362;2023-11-21T09:16:52;10.30;99.80
5647;DHT22;2845;48.626;9.362;2023-11-21T09:19:26;10.30;99.90
5647;DHT22;2845;48.626;9.362;2023-11-21T09:22:02;10.20;99.90
5647;DHT22;2845;48.626;9.362;2023-11-21T09:24:37;10.10;99.90
5647;DHT22;2845;48.626;9.362;2023-11-21T09:27:12;10.00;99.90
5647;DHT22;2845;48.626;9.362;2023-11-21T09:29:48;11.60;99.90
5647;DHT22;2845;48.626;9.362;2023-11-21T09:32:22;9.90;99.90
5647;DHT22;2845;48.626;9.362;2023-11-21T09:34:56;9.90;99.90
5647;DHT22;2845;48.626;9.362;2023-11-21T09:37:33;9.90;99.90
5647;DHT22;2845;48.626;9.362;2023-11-21T09:40:11;11.80;99.90
5647;DHT22;2845;48.626;9.362;2023-11-21T09:42:54;10.00;99.90
5647;DHT22;2845;48.626;9.362;2023-11-21T09:45:34;12.40;99.90
5647;DHT22;2845;48.626;9.362;2023-11-21T09:48:10;10.00;99.90
5647;DHT22;2845;48.626;9.362;2023-11-21T09:50:47;10.40;99.90
5647;DHT22;2845;48.626;9.362;2023-11-21T09:53:27;10.10;99.90
5647;DHT22;2845;48.626;9.362;2023-11-21T09:56:03;10.20;99.90
5647;DHT22;2845;48.626;9.362;2023-11-21T09:58:38;10.30;99.90
5647;DHT22;2845;48.626;9.362;2023-11-21T10:01:14;10.30;99.90
5647;DHT22;2845;48.626;9.362;2023-11-21T10:03:50;10.40;99.90
5647;DHT22;2845;48.626;9.362;2023-11-21T10:06:24;11.20;99.90
5647;DHT22;2845;48.626;9.362;2023-11-21T10:09:01;10.40;99.90
5647;DHT22;2845;48.626;9.362;2023-11-21T10:11:37;10.50;99.90
5647;DHT22;2845;48.626;9.362;2023-11-21T10:14:14;12.50;99.90
5647;DHT22;2845;48.626;9.362;2023-11-21T10:16:52;11.60;99.90
5647;DHT22;2845;48.626;9.362;2023-11-21T10:19:27;11.30;99.80
5647;DHT22;2845;48.626;9.362;2023-11-21T10:22:02;10.50;99.40
5647;DHT22;2845;48.626;9.362;2023-11-21T10:24:37;10.60;99.30
5647;DHT22;2845;48.626;9.362;2023-11-21T10:27:26;10.80;99.20
5647;DHT22;2845;48.626;9.362;2023-11-21T10:30:01;10.80;99.10
5647;DHT22;2845;48.626;9.362;2023-11-21T10:32:36;10.90;99.00
5647;DHT22;2845;48.626;9.362;2023-11-21T10:35:10;12.70;99.00
5647;DHT22;2845;48.626;9.362;2023-11-21T10:37:44;11.10;98.60
5647;DHT22;2845;48.626;9.362;2023-11-21T10:40:37;11.10;98.50
5647;DHT22;2845;48.626;9.362;2023-11-21T10:43:14;12.40;98.60
5647;DHT22;2845;48.626;9.362;2023-11-21T10:45:49;11.10;98.30
5647;DHT22;2845;48.626;9.362;2023-11-21T10:48:23;11.20;98.30
5647;DHT22;2845;48.626;9.362;2023-11-21T10:50:57;11.60;98.40
5647;DHT22;2845;48.626;9.362;2023-11-21T10:53:31;11.10;98.30
5647;DHT22;2845;48.626;9.362;2023-11-21T10:56:08;11.60;98.40
5647;DHT22;2845;48.626;9.362;2023-11-21T10:58:47;11.00;98.20
5647;DHT22;2845;48.626;9.362;2023-11-21T11:01:26;11.00;98.40
5647;DHT22;2845;48.626;9.362;2023-11-21T11:04:04;12.40;98.80
5647;DHT22;2845;48.626;9.362;2023-11-21T11:06:43;10.80;98.60
5647;DHT22;2845;48.626;9.362;2023-11-21T11:09:17;11.40;98.90
5647;DHT22;2845;48.626;9.362;2023-11-21T11:11:53;10.60;98.90
5647;DHT22;2845;48.626;9.362;2023-11-21T11:14:28;12.20;99.40
5647;DHT22;2845;48.626;9.362;2023-11-21T11:17:05;10.60;99.20
5647;DHT22;2845;48.626;9.362;2023-11-21T11:19:41;10.60;99.30
5647;DHT22;2845;48.626;9.362;2023-11-21T11:22:25;12.60;99.70
5647;DHT22;2845;48.626;9.362;2023-11-21T11:25:21;10.70;99.30
5647;DHT22;2845;48.626;9.362;2023-11-21T11:28:06;11.00;99.20
5647;DHT22;2845;48.626;9.362;2023-11-21T11:30:51;10.90;99.10
5647;DHT22;2845;48.626;9.362;2023-11-21T11:33:37;10.80;99.10
5647;DHT22;2845;48.626;9.362;2023-11-21T11:36:20;13.10;99.50
5647;DHT22;2845;48.626;9.362;2023-11-21T11:38:58;14.60;99.60
5647;DHT22;2845;48.626;9.362;2023-11-21T11:41:34;11.50;98.70
5647;DHT22;2845;48.626;9.362;2023-11-21T11:44:49;12.90;98.80
5647;DHT22;2845;48.626;9.362;2023-11-21T11:47:31;11.60;98.30
5647;DHT22;2845;48.626;9.362;2023-11-21T11:50:08;11.60;98.10
5647;DHT22;2845;48.626;9.362;2023-11-21T11:52:48;11.70;97.90
5647;DHT22;2845;48.626;9.362;2023-11-21T11:55:24;12.50;98.10
5647;DHT22;2845;48.626;9.362;2023-11-21T11:58:05;11.60;97.90
5647;DHT22;2845;48.626;9.362;2023-11-21T12:00:42;12.60;98.10
5647;DHT22;2845;48.626;9.362;2023-11-21T12:03:19;11.40;97.90
5647;DHT22;2845;48.626;9.362;2023-11-21T12:05:54;12.30;98.20
5647;DHT22;2845;48.626;9.362;2023-11-21T12:08:31;11.20;98.20
5647;DHT22;2845;48.626;9.362;2023-11-21T12:11:05;11.10;98.30
5647;DHT22;2845;48.626;9.362;2023-11-21T12:13:40;11.00;98.50
5647;DHT22;2845;48.626;9.362;2023-11-21T12:16:15;10.90;98.80
5647;DHT22;2845;48.626;9.362;2023-11-21T12:18:49;11.30;99.30
5647;DHT22;2845;48.626;9.362;2023-11-21T12:21:23;10.60;99.50
5647;DHT22;2845;48.626;9.362;2023-11-21T12:23:58;12.80;99.90
5647;DHT22;2845;48.626;9.362;2023-11-21T12:26:32;10.30;99.90
5647;DHT22;2845;48.626;9.362;2023-11-21T12:29:07;10.30;99.90
5647;DHT22;2845;48.626;9.362;2023-11-21T12:31:42;11.50;99.90
5647;DHT22;2845;48.626;9.362;2023-11-21T12:34:17;10.10;99.90
5647;DHT22;2845;48.626;9.362;2023-11-21T12:36:51;10.10;99.90
5647;DHT22;2845;48.626;9.362;2023-11-21T12:39:27;10.10;99.90
5647;DHT22;2845;48.626;9.362;2023-11-21T12:42:02;11.20;99.90
5647;DHT22;2845;48.626;9.362;2023-11-21T12:44:36;10.10;99.90
5647;DHT22;2845;48.626;9.362;2023-11-21T12:47:19;10.10;99.90
5647;DHT22;2845;48.626;9.362;2023-11-21T12:49:54;11.40;99.90
5647;DHT22;2845;48.626;9.362;2023-11-21T12:52:28;10.40;99.90
5647;DHT22;2845;48.626;9.362;2023-11-21T12:55:03;11.50;99.90
5647;DHT22;2845;48.626;9.362;2023-11-21T12:57:41;10.70;99.90
5647;DHT22;2845;48.626;9.362;2023-11-21T13:00:18;10.90;99.90
5647;DHT22;2845;48.626;9.362;2023-11-21T13:03:03;11.00;99.90
5647;DHT22;2845;48.626;9.362;2023-11-21T13:05:39;11.90;99.90
5647;DHT22;2845;48.626;9.362;2023-11-21T13:08:16;11.10;99.90
5647;DHT22;2845;48.626;9.362;2023-11-21T13:10:54;11.60;99.90
5647;DHT22;2845;48.626;9.362;2023-11-21T13:13:30;11.10;99.90
5647;DHT22;2845;48.626;9.362;2023-11-21T13:16:06;11.10;99.90
5647;DHT22;2845;48.626;9.362;2023-11-21T13:18:43;11.10;99.90
5647;DHT22;2845;48.626;9.362;2023-11-21T13:21:18;10.90;99.90
5647;DHT22;2845;48.626;9.362;2023-11-21T13:23:52;10.80;99.90
5647;DHT22;2845;48.626;9.362;2023-11-21T13:26:27;10.60;99.90
5647;DHT22;2845;48.626;9.362;2023-11-21T13:29:01;10.50;99.90
5647;DHT22;2845;48.626;9.362;2023-11-21T13:31:37;10.40;99.90
5647;DHT22;2845;48.626;9.362;2023-11-21T13:34:13;10.40;99.90
5647;DHT22;2845;48.626;9.362;2023-11-21T13:36:55;11.10;99.90
5647;DHT22;2845;48.626;9.362;2023-11-21T13:39:33;11.30;99.90
5647;DHT22;2845;48.626;9.362;2023-11-21T13:42:08;10.50;99.90
5647;DHT22;2845;48.626;9.362;2023-11-21T13:44:44;10.60;99.90
5647;DHT22;2845;48.626;9.362;2023-11-21T13:47:20;11.80;99.90
5647;DHT22;2845;48.626;9.362;2023-11-21T13:49:59;12.70;99.90
5647;DHT22;2845;48.626;9.362;2023-11-21T13:52:34;11.00;99.90
5647;DHT22;2845;48.626;9.362;2023-11-21T13:55:10;12.20;99.90
5647;DHT22;2845;48.626;9.362;2023-11-21T13:57:48;10.90;99.90
5647;DHT22;2845;48.626;9.362;2023-11-21T14:00:24;10.80;99.90
5647;DHT22;2845;48.626;9.362;2023-11-21T14:03:17;10.80;99.90
5647;DHT22;2845;48.626;9.362;2023-11-21T14:05:56;10.90;99.90
5647;DHT22;2845;48.626;9.362;2023-11-21T14:08:31;10.70;99.90
5647;DHT22;2845;48.626;9.362;2023-11-21T14:11:05;10.60;99.90
5647;DHT22;2845;48.626;9.362;2023-11-21T14:13:39;10.50;99.90
5647;DHT22;2845;48.626;9.362;2023-11-21T14:16:19;10.40;99.90
5647;DHT22;2845;48.626;9.362;2023-11-21T14:18:54;10.80;99.90
5647;DHT22;2845;48.626;9.362;2023-11-21T14:21:35;12.00;99.90
5647;DHT22;2845;48.626;9.362;2023-11-21T14:24:10;10.30;99.90
5647;DHT22;2845;48.626;9.362;2023-11-21T14:26:46;10.30;99.90
5647;DHT22;2845;48.626;9.362;2023-11-21T14:29:22;10.90;99.90
5647;DHT22;2845;48.626;9.362;2023-11-21T14:31:56;10.30;99.90
5647;DHT22;2845;48.626;9.362;2023-11-21T14:34:31;10.30;99.90
5647;DHT22;2845;48.626;9.362;2023-11-21T14:39:41;7.30;99.90
5647;DHT22;2845;48.626;9.362;2023-11-21T14:42:19;8.80;99.90
5647;DHT22;2845;48.626;9.362;2023-11-21T14:44:57;10.20;99.90
5647;DHT22;2845;48.626;9.362;2023-11-21T14:47:35;10.10;99.90
5647;DHT22;2845;48.626;9.362;2023-11-21T14:50:15;10.10;99.90
5647;DHT22;2845;48.626;9.362;2023-11-21T15:03:39;10.20;99.90
5647;DHT22;2845;48.626;9.362;2023-11-21T15:06:23;9.90;99.90
5647;DHT22;2845;48.626;9.362;2023-11-21T15:08:59;9.70;99.90
5647;DHT22;2845;48.626;9.362;2023-11-21T15:11:51;9.70;99.90
5647;DHT22;2845;48.626;9.362;2023-11-21T15:14:29;10.70;99.90
5647;DHT22;2845;48.626;9.362;2023-11-21T15:17:04;10.30;99.90
5647;DHT22;2845;48.626;9.362;2023-11-21T15:19:41;9.50;99.90
5647;DHT22;2845;48.626;9.362;2023-11-21T15:22:16;10.10;99.90
5647;DHT22;2845;48.626;9.362;2023-11-21T15:24:50;9.90;99.90
5647;DHT22;2845;48.626;9.362;2023-11-21T15:27:26;9.40;99.90
5647;DHT22;2845;48.626;9.362;2023-11-21T15:30:01;9.30;99.90
5647;DHT22;2845;48.626;9.362;2023-11-21T15:32:35;10.80;99.90
5647;DHT22;2845;48.626;9.362;2023-11-21T15:35:11;9.30;99.90
5647;DHT22;2845;48.626;9.362;2023-11-21T15:37:47;9.30;99.90
5647;DHT22;2845;48.626;9.362;2023-11-21T15:40:21;9.30;99.90
5647;DHT22;2845;48.626;9.362;2023-11-21T15:42:55;9.30;99.90
5647;DHT22;2845;48.626;9.362;2023-11-21T15:45:31;9.20;99.90
5647;DHT22;2845;48.626;9.362;2023-11-21T15:48:05;10.90;99.90
5647;DHT22;2845;48.626;9.362;2023-11-21T15:53:15;9.20;99.90
5647;DHT22;2845;48.626;9.362;2023-11-21T15:55:49;10.50;99.90
5647;DHT22;2845;48.626;9.362;2023-11-21T15:58:24;9.30;99.90
5647;DHT22;2845;48.626;9.362;2023-11-21T16:00:58;9.30;99.90
5647;DHT22;2845;48.626;9.362;2023-11-21T16:03:32;9.30;99.90
5647;DHT22;2845;48.626;9.362;2023-11-21T16:06:09;9.20;99.90
5647;DHT22;2845;48.626;9.362;2023-11-21T16:08:44;9.20;99.90
5647;DHT22;2845;48.626;9.362;2023-11-21T16:11:18;10.90;99.90
5647;DHT22;2845;48.626;9.362;2023-11-21T16:13:52;8.30;99.90
5647;DHT22;2845;48.626;9.362;2023-11-21T16:16:26;10.80;99.90
5647;DHT22;2845;48.626;9.362;2023-11-21T16:19:01;9.70;99.90
5647;DHT22;2845;48.626;9.362;2023-11-21T16:21:36;10.90;99.90
5647;DHT22;2845;48.626;9.362;2023-11-21T16:24:10;9.30;99.90
5647;DHT22;2845;48.626;9.362;2023-11-21T16:26:45;9.00;99.90
5647;DHT22;2845;48.626;9.362;2023-11-21T16:29:19;9.10;99.90
5647;DHT22;2845;48.626;9.362;2023-11-21T16:31:54;9.50;99.90
5647;DHT22;2845;48.626;9.362;2023-11-21T16:34:28;9.50;99.90
5647;DHT22;2845;48.626;9.362;2023-11-21T16:37:05;9.20;99.90
5647;DHT22;2845;48.626;9.362;2023-11-21T16:39:44;10.40;99.90
5647;DHT22;2845;48.626;9.362;2023-11-21T16:42:20;10.40;99.90
5647;DHT22;2845;48.626;9.362;2023-11-21T16:44:54;10.60;99.90
5647;DHT22;2845;48.626;9.362;2023-11-21T16:47:30;10.10;99.90
5647;DHT22;2845;48.626;9.362;2023-11-21T16:50:06;10.60;99.90
5647;DHT22;2845;48.626;9.362;2023-11-21T16:52:42;8.90;99.90
5647;DHT22;2845;48.626;9.362;2023-11-21T16:55:17;10.70;99.90
5647;DHT22;2845;48.626;9.362;2023-11-21T16:57:51;11.60;99.90
5647;DHT22;2845;48.626;9.362;2023-11-21T17:00:25;9.20;99.90
5647;DHT22;2845;48.626;9.362;2023-11-21T17:02:59;10.00;99.90
5647;DHT22;2845;48.626;9.362;2023-11-21T17:05:33;11.00;99.90
5647;DHT22;2845;48.626;9.362;2023-11-21T17:08:09;10.60;99.90
5647;DHT22;2845;48.626;9.362;2023-11-21T17:10:46;9.00;99.90
5647;DHT22;2845;48.626;9.362;2023-11-21T17:13:21;9.10;99.90
5647;DHT22;2845;48.626;9.362;2023-11-21T17:15:55;9.00;99.90
5647;DHT22;2845;48.626;9.362;2023-11-21T17:18:30;10.10;99.90
5647;DHT22;2845;48.626;9.362;2023-11-21T17:21:04;8.90;99.90